Tallassee, AL (36023)

5:45 PM CST on February 06, 2016 (GMT -0600)
Tallassee | | Change Station
CLOSE
Current Station
Personal Weather Station
Location: Tallassee, AL
Elevation: 545 ft
Nearby Weather Stations

Elev 545 ft 32.60 °N, 85.91 °W | Updated 9 minutes ago

Clear
Clear
44.8 °F
Feels Like 45 °F
N
0.0
Wind Variable Wind from West

Today
High -- | Low -- °F
--% Chance of Precip.
Yesterday
High -- | Low -- °F
Precip. -- in
Pressure 30.30 in
Visibility 10.0 miles
Clouds Clear
Windchill 45 °F
Dew Point 29 °F
Humidity 53%
Rainfall 0.00 in
Snow Depth Not available.
6:34 AM 5:20 PM
Waning Crescent, 3% visible
METAR KAUO 062256Z AUTO 03006KT 10SM CLR 09/M07 A3023 RMK AO2 SLP261 T00941072
Pressure 30.30 in
Visibility 10.0 miles
Clouds Clear
Windchill 45 °F
Dew Point 29 °F
Humidity 53%
Rainfall 0.00 in
Snow Depth Not available.
6:34 AM 5:20 PM
Waning Crescent, 3% visible
METAR KAUO 062256Z AUTO 03006KT 10SM CLR 09/M07 A3023 RMK AO2 SLP261 T00941072

10-Day Weather Forecast

Almanac

Astronomy

Feb. 06, 2016 Rise Set
Actual Time
Civil Twilight
Nautical Twilight
Astronomical Twilight
Moon
Length of Visible Light
Length of Day
Tomorrow will be .
, % of the Moon is Illuminated

Today's Extremes

State Highs State Lows

Community

WunderPhotos

Upload Photos

1,891,098 photos uploaded!

WunderBlog® & News

Nearby

Air Quality

  Air Quality AQ Index Pollutant
Not available.

Snow Depth

Station Depth Elevation

Earthquake Activity

City Distance Mag. Time & Date
Minimum magnitude displayed is 2.5.

Coastal Water Temperatures

Place Temperature

Stations

Nearby Weather Stations

Station Location Temp. Windchill Dew Point Humidity Wind Precip. Elev Updated Type
                   

Watches & Warnings

There are currently no watches in effect.